Time;durP1;ratioP1;P1;durP2;ratioP2;P2;SDS_P1;SDS_P2;PMS_P1;PMS_P2;Temp;Humidity;BMP_temperature;BMP_pressure;BME280_temperature;BME280_humidity;BME280_pressure;Samples;Min_cycle;Max_cycle;Signal;HPM_P1;HPM_P2
2021/08/12 00:00:42;;;;;;;;;;;;;;;;;;2107933;28;1792;-83
2021/08/12 00:01:43;;;;;;;;;;;;;;;;;;2114568;28;1614;-83
2021/08/12 00:02:45;;;;;;;;;;;;;;;;;;2107140;28;1600;-83
2021/08/12 00:03:46;;;;;;;;;;;;;;;;;;2107344;28;1428;-83
2021/08/12 00:04:48;;;;;;;;;;;;;;;;;;2107069;28;1593;-82
2021/08/12 00:05:50;;;;;;;;;;;;;;;;;;2110410;28;1879;-83
2021/08/12 00:06:50;;;;;;;;;;;;;;;;;;2115537;28;1265;-82
2021/08/12 00:07:52;;;;;;;;;;;;;;;;;;2114218;28;1861;-86
2021/08/12 00:08:54;;;;;;;;;;;;;;;;;;2106907;28;1586;-82
2021/08/12 00:09:57;;;;;;;;;;;;;;;;;;2107475;28;1308;-83
2021/08/12 00:10:58;;;;;;;;;;;;;;;;;;2107374;28;1911;-83
2021/08/12 00:11:59;;;;;;;;;;;;;;;;;;2098602;28;1386;-82
2021/08/12 00:13:00;;;;;;;;;;;;;;;;;;2098709;28;1910;-83
2021/08/12 00:14:02;;;;;;;;;;;;;;;;;;2098787;28;1632;-82
2021/08/12 00:15:05;;;;;;;;;;;;;;;;;;2098727;28;1525;-81
2021/08/12 00:16:07;;;;;;;;;;;;;;;;;;2100430;28;2043;-85
2021/08/12 00:17:08;;;;;;;;;;;;;;;;;;2100416;28;1695;-82
2021/08/12 00:18:09;;;;;;;;;;;;;;;;;;2107115;28;2099;-83
2021/08/12 00:19:11;;;;;;;;;;;;;;;;;;2108699;28;1289;-83
2021/08/12 00:20:13;;;;;;;;;;;;;;;;;;2108737;28;1331;-83
2021/08/12 00:21:14;;;;;;;;;;;;;;;;;;2108281;28;1841;-82
2021/08/12 00:22:16;;;;;;;;;;;;;;;;;;2108326;28;1553;-83
2021/08/12 00:23:17;;;;;;;;;;;;;;;;;;2100961;28;1675;-82
2021/08/12 00:24:21;;;;;;;;;;;;;;;;;;2100217;28;1674;-83
2021/08/12 00:25:23;;;;;;;;;;;;;;;;;;2108985;28;921;-82
2021/08/12 00:26:24;;;;;;;;;;;;;;;;;;2114432;28;1957;-82
2021/08/12 00:27:25;;;;;;;;;;;;;;;;;;2108310;28;1913;-82
2021/08/12 00:28:26;;;;;;;;;;;;;;;;;;2108486;28;1872;-82
2021/08/12 00:29:28;;;;;;;;;;;;;;;;;;2108252;28;1588;-82
2021/08/12 00:30:30;;;;;;;;;;;;;;;;;;2108674;28;1745;-82
2021/08/12 00:31:32;;;;;;;;;;;;;;;;;;2116285;28;1930;-83
2021/08/12 00:32:33;;;;;;;;;;;;;;;;;;2117112;28;1494;-82
2021/08/12 00:33:35;;;;;;;;;;;;;;;;;;2116867;28;1918;-82
2021/08/12 00:34:36;;;;;;;;;;;;;;;;;;2108379;28;1366;-83
2021/08/12 00:35:37;;;;;;;;;;;;;;;;;;2116470;28;1941;-82
2021/08/12 00:36:39;;;;;;;;;;;;;;;;;;2108121;28;1394;-82
2021/08/12 00:37:42;;;;;;;;;;;;;;;;;;2108261;28;1933;-82
2021/08/12 00:38:42;;;;;;;;;;;;;;;;;;2100277;28;1285;-82
2021/08/12 00:39:44;;;;;;;;;;;;;;;;;;2100497;28;1479;-81
2021/08/12 00:40:48;;;;;;;;;;;;;;;;;;2109562;28;1875;-82
2021/08/12 00:41:50;;;;;;;;;;;;;;;;;;2108057;28;1684;-81
2021/08/12 00:42:51;;;;;;;;;;;;;;;;;;2108700;28;1364;-81
2021/08/12 00:43:53;;;;;;;;;;;;;;;;;;2108337;28;1545;-82
2021/08/12 00:44:55;;;;;;;;;;;;;;;;;;2108768;28;1328;-82
2021/08/12 00:45:59;;;;;;;;;;;;;;;;;;2111453;28;1863;-82
2021/08/12 00:47:00;;;;;;;;;;;;;;;;;;2108634;28;1327;-81
2021/08/12 00:48:06;;;;;;;;;;;;;;;;;;2109000;28;1317;-81
2021/08/12 00:49:07;;;;;;;;;;;;;;;;;;2108753;28;1618;-81
2021/08/12 00:50:10;;;;;;;;;;;;;;;;;;2099679;28;1572;-82
2021/08/12 00:51:11;;;;;;;;;;;;;;;;;;2105306;28;1895;-81
2021/08/12 00:52:13;;;;;;;;;;;;;;;;;;2108414;28;1793;-81
2021/08/12 00:53:17;;;;;;;;;;;;;;;;;;2100644;28;1973;-81
2021/08/12 00:54:19;;;;;;;;;;;;;;;;;;2100141;28;1368;-81
2021/08/12 00:55:21;;;;;;;;;;;;;;;;;;2108829;28;1178;-82
2021/08/12 00:56:23;;;;;;;;;;;;;;;;;;2107870;28;1935;-82
2021/08/12 00:57:23;;;;;;;;;;;;;;;;;;2108005;28;1845;-82
2021/08/12 00:58:25;;;;;;;;;;;;;;;;;;2100157;28;1792;-81
2021/08/12 00:59:28;;;;;;;;;;;;;;;;;;2100285;28;1294;-81
2021/08/12 01:00:31;;;;;;;;;;;;;;;;;;2100080;28;1319;-81
2021/08/12 01:01:34;;;;;;;;;;;;;;;;;;2108276;28;1888;-81
2021/08/12 01:02:36;;;;;;;;;;;;;;;;;;2107063;28;1847;-81
2021/08/12 01:03:37;;;;;;;;;;;;;;;;;;2108402;28;1376;-81
2021/08/12 01:04:39;;;;;;;;;;;;;;;;;;2116379;28;1313;-81
2021/08/12 01:05:42;;;;;;;;;;;;;;;;;;2107788;28;1892;-83
2021/08/12 01:06:47;;;;;;;;;;;;;;;;;;2108628;28;1712;-82
2021/08/12 01:07:55;;;;;;;;;;;;;;;;;;2107355;28;2084;-82
2021/08/12 01:09:01;;;;;;;;;;;;;;;;;;2100726;28;1255;-82
2021/08/12 01:10:06;;;;;;;;;;;;;;;;;;2100639;28;1557;-82
2021/08/12 01:11:14;;;;;;;;;;;;;;;;;;2104396;28;1967;-82
2021/08/12 01:12:19;;;;;;;;;;;;;;;;;;2100312;28;1905;-83
2021/08/12 01:13:26;;;;;;;;;;;;;;;;;;2100286;28;1921;-83
2021/08/12 01:14:31;;;;;;;;;;;;;;;;;;2109071;28;1217;-82
2021/08/12 01:15:37;;;;;;;;;;;;;;;;;;2108278;28;1891;-84
2021/08/12 01:16:43;;;;;;;;;;;;;;;;;;2108617;28;1282;-82
2021/08/12 01:17:45;;;;;;;;;;;;;;;;;;2104580;28;2031;-82
2021/08/12 01:18:48;;;;;;;;;;;;;;;;;;2099606;28;1697;-82
2021/08/12 01:20:05;;;;;;;;;;;;;;;;;;2100493;28;1384;-82
2021/08/12 01:21:15;;;;;;;;;;;;;;;;;;2098963;28;1897;-82
2021/08/12 01:22:18;;;;;;;;;;;;;;;;;;2101090;28;1907;-83
2021/08/12 01:23:22;;;;;;;;;;;;;;;;;;2100119;28;1356;-83
2021/08/12 01:24:26;;;;;;;;;;;;;;;;;;2100008;28;1775;-82
2021/08/12 01:25:28;;;;;;;;;;;;;;;;;;2099922;28;1335;-81
2021/08/12 01:26:33;;;;;;;;;;;;;;;;;;2107449;28;1915;-81
2021/08/12 01:27:36;;;;;;;;;;;;;;;;;;2107664;28;1830;-83
2021/08/12 01:28:39;;;;;;;;;;;;;;;;;;2100038;28;1409;-83
2021/08/12 01:29:47;;;;;;;;;;;;;;;;;;2100325;28;1358;-83
2021/08/12 01:31:01;;;;;;;;;;;;;;;;;;2100821;28;1863;-84
2021/08/12 01:32:07;;;;;;;;;;;;;;;;;;2101757;28;1447;-83
2021/08/12 01:33:14;;;;;;;;;;;;;;;;;;2106604;28;1854;-82
2021/08/12 01:34:18;;;;;;;;;;;;;;;;;;2100389;28;1297;-82
2021/08/12 01:35:23;;;;;;;;;;;;;;;;;;2107668;28;1283;-82
2021/08/12 01:36:24;;;;;;;;;;;;;;;;;;2116816;28;1366;-82
2021/08/12 01:37:28;;;;;;;;;;;;;;;;;;2110491;28;1718;-82
2021/08/12 01:38:29;;;;;;;;;;;;;;;;;;2107757;28;1335;-82
2021/08/12 01:39:34;;;;;;;;;;;;;;;;;;2107996;28;1326;-82
2021/08/12 01:40:36;;;;;;;;;;;;;;;;;;2108394;28;1371;-81
2021/08/12 01:41:38;;;;;;;;;;;;;;;;;;2108219;28;1530;-82
2021/08/12 01:42:39;;;;;;;;;;;;;;;;;;2106679;28;1660;-82
2021/08/12 01:43:41;;;;;;;;;;;;;;;;;;2107806;28;1338;-82
2021/08/12 01:44:44;;;;;;;;;;;;;;;;;;2110520;28;1666;-82
2021/08/12 01:45:49;;;;;;;;;;;;;;;;;;2102993;28;1209;-82
2021/08/12 01:46:51;;;;;;;;;;;;;;;;;;2107951;28;1291;-82
2021/08/12 01:47:53;;;;;;;;;;;;;;;;;;2107134;28;1631;-81
2021/08/12 01:48:56;;;;;;;;;;;;;;;;;;2107684;28;1277;-81
2021/08/12 01:49:58;;;;;;;;;;;;;;;;;;2108374;28;1400;-82
2021/08/12 01:51:01;;;;;;;;;;;;;;;;;;2107518;28;1705;-81
2021/08/12 01:52:03;;;;;;;;;;;;;;;;;;2107738;28;1508;-82
2021/08/12 01:53:06;;;;;;;;;;;;;;;;;;2098978;28;1905;-81
2021/08/12 01:54:07;;;;;;;;;;;;;;;;;;2096924;28;1975;-82
2021/08/12 01:55:11;;;;;;;;;;;;;;;;;;2099810;28;1386;-82
2021/08/12 01:56:17;;;;;;;;;;;;;;;;;;2101050;28;1599;-82
2021/08/12 01:57:20;;;;;;;;;;;;;;;;;;2107379;28;1762;-82
2021/08/12 01:58:23;;;;;;;;;;;;;;;;;;2104314;28;1298;-82
2021/08/12 01:59:26;;;;;;;;;;;;;;;;;;2107861;28;1705;-82
2021/08/12 02:00:30;;;;;;;;;;;;;;;;;;2105089;28;1596;-82
2021/08/12 02:01:36;;;;;;;;;;;;;;;;;;2102941;28;1430;-82
2021/08/12 02:02:37;;;;;;;;;;;;;;;;;;2099853;28;1339;-82
2021/08/12 02:03:40;;;;;;;;;;;;;;;;;;2107917;28;1373;-82
2021/08/12 02:04:43;;;;;;;;;;;;;;;;;;2099116;28;1604;-83
2021/08/12 02:05:47;;;;;;;;;;;;;;;;;;2098020;28;1786;-83
2021/08/12 02:06:49;;;;;;;;;;;;;;;;;;2105167;28;1241;-82
2021/08/12 02:07:53;;;;;;;;;;;;;;;;;;2107233;28;1551;-83
2021/08/12 02:08:54;;;;;;;;;;;;;;;;;;2107319;28;1337;-83
2021/08/12 02:09:56;;;;;;;;;;;;;;;;;;2116227;28;1328;-83
2021/08/12 02:10:58;;;;;;;;;;;;;;;;;;2115576;28;1275;-83
2021/08/12 02:12:02;;;;;;;;;;;;;;;;;;2107993;28;1345;-83
2021/08/12 02:13:06;;;;;;;;;;;;;;;;;;2108561;28;2059;-83
2021/08/12 02:14:07;;;;;;;;;;;;;;;;;;2099376;28;1910;-83
2021/08/12 02:15:10;;;;;;;;;;;;;;;;;;2091365;28;1273;-83
2021/08/12 02:16:13;;;;;;;;;;;;;;;;;;2107305;28;2053;-84
2021/08/12 02:17:15;;;;;;;;;;;;;;;;;;2105143;28;1722;-84
2021/08/12 02:18:17;;;;;;;;;;;;;;;;;;2102265;28;1535;-84
2021/08/12 02:19:19;;;;;;;;;;;;;;;;;;2108015;28;1325;-83
2021/08/12 02:20:21;;;;;;;;;;;;;;;;;;2107733;28;1585;-83
2021/08/12 02:21:24;;;;;;;;;;;;;;;;;;2107590;28;1610;-82
2021/08/12 02:22:31;;;;;;;;;;;;;;;;;;2100406;28;2036;-82
2021/08/12 02:23:33;;;;;;;;;;;;;;;;;;2108604;28;1289;-82
2021/08/12 02:24:38;;;;;;;;;;;;;;;;;;2116318;28;1381;-82
2021/08/12 02:25:42;;;;;;;;;;;;;;;;;;2116561;28;846;-80
2021/08/12 02:26:45;;;;;;;;;;;;;;;;;;2116187;28;1731;-82
2021/08/12 02:27:47;;;;;;;;;;;;;;;;;;2115227;28;1620;-81
2021/08/12 02:28:50;;;;;;;;;;;;;;;;;;2107479;28;1685;-82
2021/08/12 02:29:52;;;;;;;;;;;;;;;;;;2108058;28;1299;-82
2021/08/12 02:30:55;;;;;;;;;;;;;;;;;;2107700;28;1263;-82
2021/08/12 02:31:56;;;;;;;;;;;;;;;;;;2113249;28;1445;-82
2021/08/12 02:32:58;;;;;;;;;;;;;;;;;;2107270;28;1328;-82
2021/08/12 02:34:00;;;;;;;;;;;;;;;;;;2107032;28;1902;-82
2021/08/12 02:35:03;;;;;;;;;;;;;;;;;;2107465;28;1491;-82
2021/08/12 02:36:05;;;;;;;;;;;;;;;;;;2098278;28;1726;-82
2021/08/12 02:37:09;;;;;;;;;;;;;;;;;;2098339;28;1876;-82
2021/08/12 02:38:12;;;;;;;;;;;;;;;;;;2106896;28;1649;-82
2021/08/12 02:39:18;;;;;;;;;;;;;;;;;;2113654;28;1250;-82
2021/08/12 02:40:21;;;;;;;;;;;;;;;;;;2115678;28;1487;-82
2021/08/12 02:41:23;;;;;;;;;;;;;;;;;;2107427;28;1329;-82
2021/08/12 02:42:26;;;;;;;;;;;;;;;;;;2106932;28;1695;-82
2021/08/12 02:43:28;;;;;;;;;;;;;;;;;;2106981;28;1366;-82
2021/08/12 02:44:30;;;;;;;;;;;;;;;;;;2115775;28;1613;-82
2021/08/12 02:45:32;;;;;;;;;;;;;;;;;;2107437;28;1283;-82
2021/08/12 02:46:35;;;;;;;;;;;;;;;;;;2115240;28;1885;-82
2021/08/12 02:47:36;;;;;;;;;;;;;;;;;;2107816;28;1385;-82
2021/08/12 02:48:39;;;;;;;;;;;;;;;;;;2113661;28;1331;-82
2021/08/12 02:49:41;;;;;;;;;;;;;;;;;;2107645;28;1784;-81
2021/08/12 02:50:44;;;;;;;;;;;;;;;;;;2107517;28;2024;-82
2021/08/12 02:51:46;;;;;;;;;;;;;;;;;;2107709;28;1353;-82
2021/08/12 02:52:48;;;;;;;;;;;;;;;;;;2103375;28;1952;-81
2021/08/12 02:53:51;;;;;;;;;;;;;;;;;;2107806;28;1909;-81
2021/08/12 02:54:53;;;;;;;;;;;;;;;;;;2115805;28;1270;-82
2021/08/12 02:55:55;;;;;;;;;;;;;;;;;;2115867;28;1899;-82
2021/08/12 02:56:57;;;;;;;;;;;;;;;;;;2115893;28;1410;-82
2021/08/12 02:57:58;;;;;;;;;;;;;;;;;;2101061;28;1676;-82
2021/08/12 02:59:00;;;;;;;;;;;;;;;;;;2099602;28;1344;-82
2021/08/12 03:00:01;;;;;;;;;;;;;;;;;;2107688;28;1357;-81
2021/08/12 03:01:03;;;;;;;;;;;;;;;;;;2104423;28;1452;-81
2021/08/12 03:02:06;;;;;;;;;;;;;;;;;;2115934;28;1465;-82
2021/08/12 03:03:09;;;;;;;;;;;;;;;;;;2115390;28;1733;-82
2021/08/12 03:04:10;;;;;;;;;;;;;;;;;;2115291;28;1280;-83
2021/08/12 03:05:13;;;;;;;;;;;;;;;;;;2107754;28;1413;-82
2021/08/12 03:06:17;;;;;;;;;;;;;;;;;;2106676;28;1800;-82
2021/08/12 03:07:20;;;;;;;;;;;;;;;;;;2106492;28;1925;-82
2021/08/12 03:08:23;;;;;;;;;;;;;;;;;;2106764;28;1620;-81
2021/08/12 03:09:27;;;;;;;;;;;;;;;;;;2099145;28;1265;-81
2021/08/12 03:10:31;;;;;;;;;;;;;;;;;;2099313;28;1516;-82
2021/08/12 03:11:34;;;;;;;;;;;;;;;;;;2106715;28;2029;-82
2021/08/12 03:12:36;;;;;;;;;;;;;;;;;;2106768;28;1870;-82
2021/08/12 03:13:37;;;;;;;;;;;;;;;;;;2107465;28;1344;-82
2021/08/12 03:14:39;;;;;;;;;;;;;;;;;;2098531;28;1971;-82
2021/08/12 03:15:41;;;;;;;;;;;;;;;;;;2107193;28;1859;-82
2021/08/12 03:16:43;;;;;;;;;;;;;;;;;;2099001;28;1315;-82
2021/08/12 03:17:44;;;;;;;;;;;;;;;;;;2102631;28;2040;-82
2021/08/12 03:18:46;;;;;;;;;;;;;;;;;;2099019;28;1333;-82
2021/08/12 03:19:47;;;;;;;;;;;;;;;;;;2107608;28;1563;-82
2021/08/12 03:20:49;;;;;;;;;;;;;;;;;;2106816;28;2014;-82
2021/08/12 03:22:01;;;;;;;;;;;;;;;;;;2115872;28;1819;-82
2021/08/12 03:23:03;;;;;;;;;;;;;;;;;;2108866;28;2015;-82
2021/08/12 03:24:04;;;;;;;;;;;;;;;;;;2107838;28;1249;-82
2021/08/12 03:25:10;;;;;;;;;;;;;;;;;;2107104;28;1779;-82
2021/08/12 03:26:15;;;;;;;;;;;;;;;;;;2104026;28;1848;-82
2021/08/12 03:27:17;;;;;;;;;;;;;;;;;;2098935;28;1971;-83
2021/08/12 03:28:17;;;;;;;;;;;;;;;;;;2099410;28;1367;-82
2021/08/12 03:29:19;;;;;;;;;;;;;;;;;;2098937;28;1676;-82
2021/08/12 03:30:20;;;;;;;;;;;;;;;;;;2106933;28;1382;-82
2021/08/12 03:31:22;;;;;;;;;;;;;;;;;;2099527;28;1935;-82
2021/08/12 03:32:23;;;;;;;;;;;;;;;;;;2098945;28;1931;-82
2021/08/12 03:33:27;;;;;;;;;;;;;;;;;;2107960;28;1346;-82
2021/08/12 03:34:29;;;;;;;;;;;;;;;;;;2107376;28;1933;-82
2021/08/12 03:35:31;;;;;;;;;;;;;;;;;;2107520;28;1383;-82
2021/08/12 03:36:32;;;;;;;;;;;;;;;;;;2107098;28;1943;-82
2021/08/12 03:37:34;;;;;;;;;;;;;;;;;;2107391;28;1884;-82
2021/08/12 03:38:35;;;;;;;;;;;;;;;;;;2098990;28;1673;-82
2021/08/12 03:39:37;;;;;;;;;;;;;;;;;;2099023;28;1313;-82
2021/08/12 03:40:39;;;;;;;;;;;;;;;;;;2098844;28;1939;-83
2021/08/12 03:41:42;;;;;;;;;;;;;;;;;;2107591;28;1400;-82
2021/08/12 03:42:43;;;;;;;;;;;;;;;;;;2101312;28;1945;-82
2021/08/12 03:43:46;;;;;;;;;;;;;;;;;;2099154;28;1597;-82
2021/08/12 03:44:46;;;;;;;;;;;;;;;;;;2098901;28;1309;-82
2021/08/12 03:45:48;;;;;;;;;;;;;;;;;;2100595;28;1920;-82
2021/08/12 03:46:49;;;;;;;;;;;;;;;;;;2098704;28;1269;-82
2021/08/12 03:47:51;;;;;;;;;;;;;;;;;;2100290;28;1909;-82
2021/08/12 03:48:51;;;;;;;;;;;;;;;;;;2106596;28;1437;-82
2021/08/12 03:49:53;;;;;;;;;;;;;;;;;;2107525;28;1388;-81
2021/08/12 03:50:55;;;;;;;;;;;;;;;;;;2107466;28;1866;-83
2021/08/12 03:51:56;;;;;;;;;;;;;;;;;;2108884;28;1632;-83
2021/08/12 03:52:59;;;;;;;;;;;;;;;;;;2099571;28;1902;-83
2021/08/12 03:54:01;;;;;;;;;;;;;;;;;;2100983;28;1572;-83
2021/08/12 03:55:03;;;;;;;;;;;;;;;;;;2100398;28;1914;-82
2021/08/12 03:56:06;;;;;;;;;;;;;;;;;;2104566;28;1920;-83
2021/08/12 03:57:07;;;;;;;;;;;;;;;;;;2100885;28;1436;-82
2021/08/12 03:58:09;;;;;;;;;;;;;;;;;;2107145;28;1925;-83
2021/08/12 03:59:09;;;;;;;;;;;;;;;;;;2109163;28;1391;-83
2021/08/12 04:00:12;;;;;;;;;;;;;;;;;;2100106;28;1396;-83
2021/08/12 04:01:20;;;;;;;;;;;;;;;;;;2101971;28;1856;-82
2021/08/12 04:02:22;;;;;;;;;;;;;;;;;;2108653;28;1928;-82
2021/08/12 04:03:22;;;;;;;;;;;;;;;;;;2100721;28;1424;-82
2021/08/12 04:04:24;;;;;;;;;;;;;;;;;;2100357;28;1416;-82
2021/08/12 04:05:25;;;;;;;;;;;;;;;;;;2108710;28;1413;-83
2021/08/12 04:06:27;;;;;;;;;;;;;;;;;;2108284;28;1888;-83
2021/08/12 04:07:28;;;;;;;;;;;;;;;;;;2101511;28;1945;-82
2021/08/12 04:08:31;;;;;;;;;;;;;;;;;;2116915;28;1473;-82
2021/08/12 04:09:31;;;;;;;;;;;;;;;;;;2108940;28;1525;-82
2021/08/12 04:10:33;;;;;;;;;;;;;;;;;;2108606;28;1499;-84
2021/08/12 04:11:36;;;;;;;;;;;;;;;;;;2100511;28;1765;-82
2021/08/12 04:12:37;;;;;;;;;;;;;;;;;;2102424;28;1924;-82
2021/08/12 04:13:39;;;;;;;;;;;;;;;;;;2100891;28;1574;-82
2021/08/12 04:14:41;;;;;;;;;;;;;;;;;;2100031;28;1983;-82
2021/08/12 04:15:41;;;;;;;;;;;;;;;;;;2101255;28;1868;-83
2021/08/12 04:16:43;;;;;;;;;;;;;;;;;;2108823;28;1491;-82
2021/08/12 04:17:44;;;;;;;;;;;;;;;;;;2103919;28;1826;-82
2021/08/12 04:18:45;;;;;;;;;;;;;;;;;;2108465;28;1697;-81
2021/08/12 04:19:46;;;;;;;;;;;;;;;;;;2100343;28;1695;-82
2021/08/12 04:20:48;;;;;;;;;;;;;;;;;;2109880;28;1887;-82
2021/08/12 04:21:49;;;;;;;;;;;;;;;;;;2108647;28;1249;-82
2021/08/12 04:22:51;;;;;;;;;;;;;;;;;;2104620;28;2009;-82
2021/08/12 04:23:52;;;;;;;;;;;;;;;;;;2117269;28;1510;-82
2021/08/12 04:24:54;;;;;;;;;;;;;;;;;;2108622;28;1511;-82
2021/08/12 04:25:54;;;;;;;;;;;;;;;;;;2111028;28;1835;-82
2021/08/12 04:26:58;;;;;;;;;;;;;;;;;;2116859;28;1796;-82
2021/08/12 04:27:59;;;;;;;;;;;;;;;;;;2107138;28;1878;-82
2021/08/12 04:29:02;;;;;;;;;;;;;;;;;;2108436;28;1340;-82
2021/08/12 04:30:03;;;;;;;;;;;;;;;;;;2117206;28;1178;-82
2021/08/12 04:31:05;;;;;;;;;;;;;;;;;;2107940;28;2046;-82
2021/08/12 04:32:06;;;;;;;;;;;;;;;;;;2117036;28;1560;-85
2021/08/12 04:33:08;;;;;;;;;;;;;;;;;;2101703;28;1919;-82
2021/08/12 04:34:09;;;;;;;;;;;;;;;;;;2100110;28;1268;-82
2021/08/12 04:35:11;;;;;;;;;;;;;;;;;;2099772;28;1982;-82
2021/08/12 04:36:11;;;;;;;;;;;;;;;;;;2104291;28;1916;-81
2021/08/12 04:37:13;;;;;;;;;;;;;;;;;;2108683;28;1296;-82
2021/08/12 04:38:14;;;;;;;;;;;;;;;;;;2108544;28;2023;-82
2021/08/12 04:39:16;;;;;;;;;;;;;;;;;;2100385;28;1328;-81
2021/08/12 04:40:18;;;;;;;;;;;;;;;;;;2099852;28;1547;-82
2021/08/12 04:41:22;;;;;;;;;;;;;;;;;;2106391;28;1907;-81
2021/08/12 04:42:24;;;;;;;;;;;;;;;;;;2107475;28;1905;-82
2021/08/12 04:43:26;;;;;;;;;;;;;;;;;;2108470;28;1582;-81
2021/08/12 04:44:27;;;;;;;;;;;;;;;;;;2108736;28;1314;-81
2021/08/12 04:45:28;;;;;;;;;;;;;;;;;;2108505;28;1699;-81
2021/08/12 04:46:29;;;;;;;;;;;;;;;;;;2115189;28;1950;-81
2021/08/12 04:47:31;;;;;;;;;;;;;;;;;;2109058;28;1901;-81
2021/08/12 04:48:31;;;;;;;;;;;;;;;;;;2108532;28;1590;-81
2021/08/12 04:49:33;;;;;;;;;;;;;;;;;;2099824;28;1279;-81
2021/08/12 04:50:34;;;;;;;;;;;;;;;;;;2099926;28;1912;-82
2021/08/12 04:51:36;;;;;;;;;;;;;;;;;;2108291;28;1715;-81
2021/08/12 04:52:39;;;;;;;;;;;;;;;;;;2100513;28;2016;-81
2021/08/12 04:53:40;;;;;;;;;;;;;;;;;;2108569;28;1543;-81
2021/08/12 04:54:41;;;;;;;;;;;;;;;;;;2099979;28;1910;-81
2021/08/12 04:55:43;;;;;;;;;;;;;;;;;;2101140;28;1884;-81
2021/08/12 04:56:43;;;;;;;;;;;;;;;;;;2107902;28;1552;-81
2021/08/12 04:57:46;;;;;;;;;;;;;;;;;;2107414;28;1843;-83
2021/08/12 04:58:47;;;;;;;;;;;;;;;;;;2108570;28;1406;-81
2021/08/12 04:59:49;;;;;;;;;;;;;;;;;;2108454;28;1777;-81
2021/08/12 05:00:50;;;;;;;;;;;;;;;;;;2107277;28;1892;-81
2021/08/12 05:01:54;;;;;;;;;;;;;;;;;;2107984;28;1307;-81
2021/08/12 05:02:54;;;;;;;;;;;;;;;;;;2104623;28;2021;-82
2021/08/12 05:03:58;;;;;;;;;;;;;;;;;;2099778;28;1442;-82
2021/08/12 05:04:59;;;;;;;;;;;;;;;;;;2100074;28;1779;-81
2021/08/12 05:06:01;;;;;;;;;;;;;;;;;;2103376;28;1880;-81
2021/08/12 05:07:03;;;;;;;;;;;;;;;;;;2108246;28;1221;-83
2021/08/12 05:08:04;;;;;;;;;;;;;;;;;;2105550;28;1932;-82
2021/08/12 05:09:06;;;;;;;;;;;;;;;;;;2108029;28;1565;-82
2021/08/12 05:10:07;;;;;;;;;;;;;;;;;;2100026;28;1559;-82
2021/08/12 05:11:09;;;;;;;;;;;;;;;;;;2100036;28;1951;-82
2021/08/12 05:12:10;;;;;;;;;;;;;;;;;;2099986;28;1672;-82
2021/08/12 05:13:14;;;;;;;;;;;;;;;;;;2106919;28;1917;-82
2021/08/12 05:14:15;;;;;;;;;;;;;;;;;;2108170;28;1376;-82
2021/08/12 05:15:17;;;;;;;;;;;;;;;;;;2100306;28;1906;-83
2021/08/12 05:16:20;;;;;;;;;;;;;;;;;;2100234;28;1946;-82
2021/08/12 05:17:20;;;;;;;;;;;;;;;;;;2100179;28;1873;-82
2021/08/12 05:18:22;;;;;;;;;;;;;;;;;;2099949;28;1277;-82
2021/08/12 05:19:23;;;;;;;;;;;;;;;;;;2100292;28;1265;-81
2021/08/12 05:20:26;;;;;;;;;;;;;;;;;;2100049;28;1867;-81
2021/08/12 05:21:27;;;;;;;;;;;;;;;;;;2107016;28;1864;-81
2021/08/12 05:22:28;;;;;;;;;;;;;;;;;;2100006;28;1850;-82
2021/08/12 05:23:30;;;;;;;;;;;;;;;;;;2108239;28;1526;-82
2021/08/12 05:24:32;;;;;;;;;;;;;;;;;;2099520;28;1781;-83
2021/08/12 05:25:34;;;;;;;;;;;;;;;;;;2099789;28;1879;-83
2021/08/12 05:26:35;;;;;;;;;;;;;;;;;;2107980;28;1363;-82
2021/08/12 05:27:37;;;;;;;;;;;;;;;;;;2100334;28;1850;-82
2021/08/12 05:28:41;;;;;;;;;;;;;;;;;;2099681;28;1860;-82
2021/08/12 05:29:43;;;;;;;;;;;;;;;;;;2108202;28;854;-81
2021/08/12 05:30:44;;;;;;;;;;;;;;;;;;2107627;28;1902;-83
2021/08/12 05:31:46;;;;;;;;;;;;;;;;;;2099734;28;1280;-81
2021/08/12 05:32:47;;;;;;;;;;;;;;;;;;2107854;28;1881;-81
2021/08/12 05:33:49;;;;;;;;;;;;;;;;;;2108152;28;1680;-81
2021/08/12 05:34:49;;;;;;;;;;;;;;;;;;2099665;28;1681;-81
2021/08/12 05:35:51;;;;;;;;;;;;;;;;;;2101646;28;1930;-81
2021/08/12 05:36:52;;;;;;;;;;;;;;;;;;2099485;28;1285;-81
2021/08/12 05:37:54;;;;;;;;;;;;;;;;;;2099785;28;1699;-81
2021/08/12 05:38:58;;;;;;;;;;;;;;;;;;2099229;28;1530;-80
2021/08/12 05:39:59;;;;;;;;;;;;;;;;;;2099972;28;1343;-81
2021/08/12 05:41:00;;;;;;;;;;;;;;;;;;2099929;28;1578;-81
2021/08/12 05:42:02;;;;;;;;;;;;;;;;;;2108130;28;1687;-81
2021/08/12 05:43:03;;;;;;;;;;;;;;;;;;2108861;28;1877;-81
2021/08/12 05:44:07;;;;;;;;;;;;;;;;;;2107822;28;1194;-80
2021/08/12 05:45:09;;;;;;;;;;;;;;;;;;2116573;28;1201;-81
2021/08/12 05:46:10;;;;;;;;;;;;;;;;;;2110335;28;1834;-81
2021/08/12 05:47:12;;;;;;;;;;;;;;;;;;2099926;28;1315;-81
2021/08/12 05:48:12;;;;;;;;;;;;;;;;;;2106976;28;1961;-82
2021/08/12 05:49:14;;;;;;;;;;;;;;;;;;2099846;28;1851;-82
2021/08/12 05:50:15;;;;;;;;;;;;;;;;;;2099592;28;1987;-82
2021/08/12 05:51:18;;;;;;;;;;;;;;;;;;2099759;28;1723;-82
2021/08/12 05:52:19;;;;;;;;;;;;;;;;;;2099604;28;1512;-82
2021/08/12 05:53:21;;;;;;;;;;;;;;;;;;2099226;28;1663;-82
2021/08/12 05:54:21;;;;;;;;;;;;;;;;;;2110659;28;1252;-82
2021/08/12 05:55:24;;;;;;;;;;;;;;;;;;2108347;28;1918;-82
2021/08/12 05:56:25;;;;;;;;;;;;;;;;;;2106725;28;2034;-82
2021/08/12 05:57:26;;;;;;;;;;;;;;;;;;2107614;28;2035;-82
2021/08/12 05:58:28;;;;;;;;;;;;;;;;;;2099214;28;1819;-82
2021/08/12 05:59:32;;;;;;;;;;;;;;;;;;2099759;28;1435;-81
2021/08/12 06:00:33;;;;;;;;;;;;;;;;;;2107909;28;1217;-82
2021/08/12 06:01:35;;;;;;;;;;;;;;;;;;2108186;28;1557;-82
2021/08/12 06:02:36;;;;;;;;;;;;;;;;;;2099624;28;1399;-82
2021/08/12 06:03:39;;;;;;;;;;;;;;;;;;2108242;28;1833;-82
2021/08/12 06:04:40;;;;;;;;;;;;;;;;;;2099261;28;1301;-82
2021/08/12 06:05:44;;;;;;;;;;;;;;;;;;2100536;28;1833;-83
2021/08/12 06:06:46;;;;;;;;;;;;;;;;;;2107523;28;1269;-82
2021/08/12 06:07:47;;;;;;;;;;;;;;;;;;2108094;28;1303;-82
2021/08/12 06:08:49;;;;;;;;;;;;;;;;;;2107638;28;1694;-82
2021/08/12 06:09:50;;;;;;;;;;;;;;;;;;2116185;28;1561;-83
2021/08/12 06:10:52;;;;;;;;;;;;;;;;;;2107354;28;1396;-83
2021/08/12 06:11:52;;;;;;;;;;;;;;;;;;2107555;28;1722;-82
2021/08/12 06:12:55;;;;;;;;;;;;;;;;;;2106371;28;1753;-82
2021/08/12 06:13:56;;;;;;;;;;;;;;;;;;2106657;28;1524;-82
2021/08/12 06:14:59;;;;;;;;;;;;;;;;;;2107609;28;1323;-82
2021/08/12 06:16:01;;;;;;;;;;;;;;;;;;2115130;28;2025;-82
2021/08/12 06:17:04;;;;;;;;;;;;;;;;;;2107804;28;1446;-82
2021/08/12 06:18:08;;;;;;;;;;;;;;;;;;2115624;28;1373;-83
2021/08/12 06:19:10;;;;;;;;;;;;;;;;;;2107111;28;1583;-83
2021/08/12 06:20:12;;;;;;;;;;;;;;;;;;2106951;28;1457;-83
2021/08/12 06:21:14;;;;;;;;;;;;;;;;;;2114903;28;1437;-83
2021/08/12 06:22:16;;;;;;;;;;;;;;;;;;2107767;28;1649;-82
2021/08/12 06:23:18;;;;;;;;;;;;;;;;;;2115548;28;1447;-84
2021/08/12 06:24:20;;;;;;;;;;;;;;;;;;2107173;28;1432;-82
2021/08/12 06:25:21;;;;;;;;;;;;;;;;;;2111125;28;1334;-83
2021/08/12 06:26:24;;;;;;;;;;;;;;;;;;2107685;28;1692;-83
2021/08/12 06:27:27;;;;;;;;;;;;;;;;;;2107838;28;1727;-77
2021/08/12 06:28:28;;;;;;;;;;;;;;;;;;2106194;28;1421;-78
2021/08/12 06:29:32;;;;;;;;;;;;;;;;;;2113854;28;1287;-77
2021/08/12 06:30:36;;;;;;;;;;;;;;;;;;2114041;28;1468;-79
2021/08/12 06:31:40;;;;;;;;;;;;;;;;;;2110254;28;1415;-78
2021/08/12 06:32:43;;;;;;;;;;;;;;;;;;2105499;28;1665;-77
2021/08/12 06:33:45;;;;;;;;;;;;;;;;;;2107665;28;1438;-77
2021/08/12 06:34:47;;;;;;;;;;;;;;;;;;2104587;28;1542;-77
2021/08/12 06:35:47;;;;;;;;;;;;;;;;;;2106118;28;1973;-77
2021/08/12 06:36:49;;;;;;;;;;;;;;;;;;2105957;28;1683;-78
2021/08/12 06:37:51;;;;;;;;;;;;;;;;;;2106231;28;1225;-77
2021/08/12 06:38:59;;;;;;;;;;;;;;;;;;2102787;28;1256;-78
2021/08/12 06:39:59;;;;;;;;;;;;;;;;;;2103596;28;1397;-77
2021/08/12 06:41:01;;;;;;;;;;;;;;;;;;2105987;28;1708;-77
2021/08/12 06:42:05;;;;;;;;;;;;;;;;;;2106396;28;1292;-77
2021/08/12 06:43:31;;;;;;;;;;;;;;;;;;2109683;28;1344;-77
2021/08/12 06:44:34;;;;;;;;;;;;;;;;;;2115333;28;1372;-77
2021/08/12 06:45:38;;;;;;;;;;;;;;;;;;2105324;28;1693;-76
2021/08/12 06:46:40;;;;;;;;;;;;;;;;;;2109579;28;1225;-77
2021/08/12 06:47:45;;;;;;;;;;;;;;;;;;2106966;28;1656;-77
2021/08/12 06:48:47;;;;;;;;;;;;;;;;;;2111688;28;1446;-79
2021/08/12 06:49:47;;;;;;;;;;;;;;;;;;2104247;28;1532;-79
2021/08/12 06:50:49;;;;;;;;;;;;;;;;;;2104798;28;1677;-77
2021/08/12 06:51:50;;;;;;;;;;;;;;;;;;2106009;28;1265;-76
2021/08/12 06:52:52;;;;;;;;;;;;;;;;;;2103422;28;1692;-78
2021/08/12 06:53:54;;;;;;;;;;;;;;;;;;2111101;27;1325;-77
2021/08/12 06:54:54;;;;;;;;;;;;;;;;;;2111090;27;1612;-77
2021/08/12 06:55:57;;;;;;;;;;;;;;;;;;2103917;28;1983;-77
2021/08/12 06:56:58;;;;;;;;;;;;;;;;;;2104034;28;1296;-77
2021/08/12 06:58:00;;;;;;;;;;;;;;;;;;2106243;28;1976;-77
2021/08/12 06:59:00;;;;;;;;;;;;;;;;;;2105957;28;1732;-77
2021/08/12 07:00:02;;;;;;;;;;;;;;;;;;2104222;28;1311;-78
2021/08/12 07:01:06;;;;;;;;;;;;;;;;;;2109579;28;1820;-78
2021/08/12 07:02:06;;;;;;;;;;;;;;;;;;2106292;28;1141;-78
2021/08/12 07:03:08;;;;;;;;;;;;;;;;;;2113500;28;2023;-77
2021/08/12 07:04:10;;;;;;;;;;;;;;;;;;2106824;28;1253;-77
2021/08/12 07:05:11;;;;;;;;;;;;;;;;;;2115166;28;1729;-77
2021/08/12 07:06:13;;;;;;;;;;;;;;;;;;2106262;28;2046;-77
2021/08/12 07:07:14;;;;;;;;;;;;;;;;;;2107100;28;1522;-77
2021/08/12 07:08:15;;;;;;;;;;;;;;;;;;2105751;28;1866;-77
2021/08/12 07:09:18;;;;;;;;;;;;;;;;;;2107064;28;1439;-78
2021/08/12 07:10:22;;;;;;;;;;;;;;;;;;2114160;28;1520;-78
2021/08/12 07:11:24;;;;;;;;;;;;;;;;;;2107061;28;1309;-77
2021/08/12 07:12:25;;;;;;;;;;;;;;;;;;2105497;28;1715;-77
2021/08/12 07:13:28;;;;;;;;;;;;;;;;;;2106810;28;1477;-82